CDT,Max TemperatureF,Mean TemperatureF,Min TemperatureF,Max Dew PointF,MeanDew PointF,Min DewpointF,Max Humidity, Mean Humidity, Min Humidity, Max Sea Level PressureIn, Mean Sea Level PressureIn, Min Sea Level PressureIn, Max VisibilityMiles, Mean VisibilityMiles, Min VisibilityMiles, Max Wind SpeedMPH, Mean Wind SpeedMPH, Max Gust SpeedMPH,PrecipitationIn, CloudCover, Events, WindDirDegrees
2013-10-1,,,,,,,,,,,,,,,,,,,,,,
2013-10-2,,,,,,,,,,,,,,,,,,,,,,
2013-10-3,,,,,,,,,,,,,,,,,,,,,,
2013-10-4,86,80,71,72,67,63,88,64,45,29.98,29.95,29.92,10,10,10,10,7,,0.00,1,,189
2013-10-5,82,72,60,72,68,59,100,84,65,29.95,29.87,29.79,10,9,2,12,7,21,0.42,3,Rain-Thunderstorm,204
2013-10-6,62,54,46,57,46,37,100,75,45,29.83,29.79,29.74,10,10,7,18,9,24,0.11,5,Rain,246
2013-10-7,71,58,44,52,45,43,100,71,35,30.10,29.96,29.81,10,9,2,16,8,22,0.00,2,,254
2013-10-8,78,61,44,50,46,43,100,64,28,30.20,30.16,30.11,10,10,10,8,3,,0.00,0,,181
2013-10-9,75,60,44,48,43,39,100,66,27,30.24,30.18,30.13,10,10,5,9,5,,0.00,0,,122
2013-10-10,78,66,55,55,53,52,88,65,39,30.17,30.07,30.04,10,10,2,8,4,,0.00,0,,146
2013-10-11,80,68,55,59,55,52,94,69,37,30.07,30.01,29.94,10,10,7,17,7,22,0.00,3,,144
2013-10-12,73,60,46,63,55,43,94,75,52,30.21,30.03,29.97,10,9,2,16,8,21,0.00,2,Rain,202
2013-10-13,69,55,41,45,37,27,93,61,21,30.40,30.33,30.22,10,10,7,13,3,20,0.00,0,,354
2013-10-14,69,52,35,46,38,28,100,64,21,30.40,30.29,30.12,10,9,3,16,6,20,0.00,0,,104
2013-10-15,69,58,48,64,53,41,94,78,64,30.11,29.92,29.81,10,9,4,16,10,24,0.00,3,Rain,184
2013-10-16,57,50,44,46,44,41,93,75,63,29.98,29.94,29.91,10,10,10,18,10,22,0.00,7,,258
2013-10-17,60,50,39,48,44,37,100,79,42,29.96,29.90,29.86,10,9,3,20,7,28,0.10,5,Rain,256
2013-10-18,53,46,39,45,40,37,100,78,58,30.00,29.95,29.87,10,9,2,17,8,23,0.00,5,Rain,261
2013-10-19,57,50,42,45,39,32,100,71,41,29.97,29.89,29.83,10,10,7,22,9,30,0.02,5,Rain,236
2013-10-20,71,58,44,45,40,37,81,58,29,29.89,29.83,29.74,10,10,10,24,13,32,0.00,2,,211
2013-10-21,59,44,30,46,34,23,87,63,35,30.02,29.95,29.84,10,10,10,22,11,29,0.00,2,Rain,278
2013-10-22,46,36,26,39,33,25,100,88,57,30.01,29.96,29.88,10,9,2,15,5,16,0.40,5,Rain,72
2013-10-23,48,40,33,37,33,25,100,79,40,30.06,30.01,29.93,10,9,1,18,9,23,0.00,6,,292
2013-10-24,42,36,30,36,29,21,93,69,45,30.33,30.19,30.05,10,10,5,18,10,23,0.00,7,Rain-Snow,293
2013-10-25,53,40,26,30,27,23,93,63,35,30.44,30.32,30.12,10,10,10,18,7,22,0.00,0,,239
2013-10-26,57,45,33,36,31,28,87,55,36,30.11,30.00,29.92,10,10,10,24,15,34,0.00,2,,265
2013-10-27,57,40,24,34,29,25,100,67,31,30.10,30.05,30.00,10,10,10,13,4,17,0.00,0,,220
2013-10-28,62,45,28,43,32,27,93,67,27,30.32,30.21,30.07,10,10,4,15,4,,0.00,0,,77
2013-10-29,57,47,37,52,43,36,100,82,55,30.32,30.23,30.14,10,8,2,13,10,,0.00,3,Rain,106
2013-10-30,66,58,51,64,58,52,100,98,94,30.12,30.00,29.80,10,3,0,22,8,28,1.41,8,Fog-Rain-Thunderstorm,147
2013-10-31,66,56,46,64,59,45,100,95,87,29.79,29.51,29.26,10,9,2,31,16,39,0.55,7,Rain,222